createdAt,value
2022-12-23T00:01:32.214Z,31.80
2022-12-23T00:04:00.423Z,28.70
2022-12-23T00:06:28.672Z,28.00
2022-12-23T00:08:58.836Z,25.20
2022-12-23T00:11:28.829Z,27.80
2022-12-23T00:14:20.991Z,30.50
2022-12-23T00:16:51.128Z,27.70
2022-12-23T00:19:19.710Z,26.60
2022-12-23T00:21:48.605Z,25.10
2022-12-23T00:24:17.453Z,28.50
2022-12-23T00:26:45.657Z,28.80
2022-12-23T00:29:13.695Z,27.50
2022-12-23T00:31:41.705Z,29.30
2022-12-23T00:34:12.444Z,26.20
2022-12-23T00:36:40.977Z,26.00
2022-12-23T00:39:31.589Z,28.10
2022-12-23T00:42:18.237Z,28.50
2022-12-23T00:44:46.310Z,28.70
2022-12-23T00:47:34.338Z,27.70
2022-12-23T00:50:02.351Z,25.70
2022-12-23T00:52:30.439Z,27.30
2022-12-23T00:54:58.483Z,28.40
2022-12-23T00:57:27.223Z,27.60
2022-12-23T00:59:55.255Z,27.40
2022-12-23T01:02:45.457Z,26.50
2022-12-23T01:05:36.711Z,24.20
2022-12-23T01:08:10.831Z,26.80
2022-12-23T01:10:40.988Z,24.80
2022-12-23T01:13:09.120Z,26.00
2022-12-23T01:15:37.192Z,26.30
2022-12-23T01:18:05.264Z,26.20
2022-12-23T01:20:33.240Z,25.80
2022-12-23T01:23:01.234Z,28.50
2022-12-23T01:25:30.503Z,23.60
2022-12-23T01:30:26.445Z,24.10
2022-12-23T01:32:54.536Z,20.30
2022-12-23T01:35:22.427Z,22.30
2022-12-23T01:37:50.397Z,24.90
2022-12-23T01:40:18.581Z,27.40
2022-12-23T01:42:47.485Z,24.80
2022-12-23T01:45:24.954Z,22.80
2022-12-23T01:48:10.470Z,24.80
2022-12-23T01:50:41.575Z,26.80
2022-12-23T01:53:28.182Z,25.80
2022-12-23T01:56:10.614Z,24.70
2022-12-23T01:58:43.057Z,25.80
2022-12-23T02:01:30.606Z,24.70
2022-12-23T02:04:02.732Z,26.80
2022-12-23T02:06:55.457Z,27.80
2022-12-23T02:09:23.602Z,30.80
2022-12-23T02:12:20.623Z,25.30
2022-12-23T02:15:26.111Z,26.20
2022-12-23T02:18:27.592Z,21.80
2022-12-23T02:21:19.773Z,24.40
2022-12-23T02:24:03.202Z,26.60
2022-12-23T02:26:54.341Z,28.00
2022-12-23T02:30:00.478Z,23.30
2022-12-23T02:32:44.152Z,27.50
2022-12-23T02:35:29.277Z,25.20
2022-12-23T02:38:20.926Z,21.50
2022-12-23T02:41:06.805Z,24.30
2022-12-23T02:43:37.443Z,23.40
2022-12-23T02:46:13.938Z,28.70
2022-12-23T02:48:54.453Z,26.00
2022-12-23T02:51:29.490Z,26.40
2022-12-23T02:54:03.117Z,26.60
2022-12-23T02:56:33.487Z,26.60
2022-12-23T02:59:27.080Z,23.60
2022-12-23T03:01:55.689Z,25.80
2022-12-23T03:04:23.738Z,24.20
2022-12-23T03:06:54.170Z,29.70
2022-12-23T03:09:36.213Z,26.60
2022-12-23T03:12:28.482Z,28.70
2022-12-23T03:15:02.822Z,26.90
2022-12-23T03:17:41.517Z,26.30
2022-12-23T03:20:20.781Z,26.70
2022-12-23T03:25:27.566Z,25.20
2022-12-23T03:28:18.782Z,26.40
2022-12-23T03:30:53.243Z,27.00
2022-12-23T03:33:29.189Z,27.80
2022-12-23T03:36:03.496Z,28.40
2022-12-23T03:38:35.753Z,26.90
2022-12-23T03:41:09.971Z,26.70
2022-12-23T03:43:51.071Z,24.70
2022-12-23T03:46:28.013Z,27.50
2022-12-23T03:49:03.879Z,27.40
2022-12-23T03:51:43.949Z,28.80
2022-12-23T03:54:17.125Z,28.50
2022-12-23T03:56:57.532Z,29.00
2022-12-23T03:59:29.728Z,26.30
2022-12-23T04:02:04.536Z,26.90
2022-12-23T04:05:10.759Z,21.60
2022-12-23T04:07:43.676Z,27.00
2022-12-23T04:10:12.991Z,25.00
2022-12-23T04:15:13.117Z,24.90
2022-12-23T04:17:41.779Z,27.50
2022-12-23T04:20:10.866Z,25.00
2022-12-23T04:22:39.654Z,28.30
2022-12-23T04:25:08.338Z,21.00
2022-12-23T04:27:36.818Z,24.40
2022-12-23T04:30:06.992Z,24.80
2022-12-23T04:32:35.110Z,26.80
2022-12-23T04:35:03.422Z,27.20
2022-12-23T04:37:31.627Z,28.00
2022-12-23T04:39:59.629Z,27.40
2022-12-23T04:42:27.698Z,24.80
2022-12-23T04:44:55.788Z,25.20
2022-12-23T04:47:23.845Z,23.60
2022-12-23T04:49:51.822Z,22.20
2022-12-23T04:52:19.894Z,19.30
2022-12-23T04:54:47.901Z,22.90
2022-12-23T04:57:16.319Z,23.10
2022-12-23T04:59:44.313Z,26.70
2022-12-23T05:02:12.868Z,26.90
2022-12-23T05:04:41.579Z,24.10
2022-12-23T05:07:09.802Z,24.10
2022-12-23T05:09:37.835Z,22.00
2022-12-23T05:12:05.889Z,24.50
2022-12-23T05:14:33.831Z,22.70
2022-12-23T05:17:07.073Z,25.50
2022-12-23T05:19:35.696Z,25.20
2022-12-23T05:22:03.838Z,26.40
2022-12-23T05:24:32.107Z,28.70
2022-12-23T05:27:00.643Z,24.00
2022-12-23T05:29:28.767Z,26.20
2022-12-23T05:31:57.389Z,25.80
2022-12-23T05:34:25.520Z,24.80
2022-12-23T05:36:53.488Z,26.20
2022-12-23T05:39:21.764Z,22.60
2022-12-23T05:41:49.811Z,22.90
2022-12-23T05:44:17.821Z,22.30
2022-12-23T05:46:45.737Z,23.40
2022-12-23T05:49:13.671Z,24.10
2022-12-23T05:51:42.009Z,22.70
2022-12-23T05:54:09.971Z,23.80
2022-12-23T05:56:38.150Z,21.70
2022-12-23T05:59:06.384Z,24.70
2022-12-23T06:01:34.555Z,22.00
2022-12-23T06:04:03.201Z,22.70
2022-12-23T06:06:31.349Z,21.70
2022-12-23T06:08:59.968Z,21.30
2022-12-23T06:11:28.796Z,23.60
2022-12-23T06:13:57.075Z,24.50
2022-12-23T06:16:25.132Z,25.50
2022-12-23T06:18:56.587Z,23.60
2022-12-23T06:21:28.045Z,27.10
2022-12-23T06:23:55.904Z,26.00
2022-12-23T06:26:24.034Z,25.70
2022-12-23T06:28:52.555Z,25.40
2022-12-23T06:31:20.559Z,24.30
2022-12-23T06:33:48.720Z,26.80
2022-12-23T06:36:16.892Z,25.20
2022-12-23T06:38:44.843Z,27.70
2022-12-23T06:41:13.658Z,28.40
2022-12-23T06:43:41.704Z,28.50
2022-12-23T06:46:09.843Z,28.80
2022-12-23T06:48:37.968Z,27.80
2022-12-23T06:51:06.136Z,26.90
2022-12-23T06:53:34.199Z,31.50
2022-12-23T06:56:03.695Z,29.30
2022-12-23T06:58:31.770Z,25.70
2022-12-23T07:00:59.957Z,26.90
2022-12-23T07:03:28.491Z,26.70
2022-12-23T07:05:56.539Z,29.50
2022-12-23T07:08:24.538Z,27.10
2022-12-23T07:10:58.737Z,28.10
2022-12-23T07:13:27.531Z,26.90
2022-12-23T07:15:55.629Z,27.60
2022-12-23T07:18:23.771Z,26.90
2022-12-23T07:20:52.661Z,22.50
2022-12-23T07:23:20.674Z,22.00
2022-12-23T07:25:48.713Z,21.20
2022-12-23T07:28:16.735Z,20.30
2022-12-23T07:30:44.627Z,26.20
2022-12-23T07:33:12.953Z,25.00
2022-12-23T07:35:42.566Z,25.00
2022-12-23T07:38:10.796Z,20.80
2022-12-23T07:40:38.995Z,27.60
2022-12-23T07:43:06.906Z,32.90
2022-12-23T07:45:35.032Z,32.30
2022-12-23T07:48:03.218Z,33.60
2022-12-23T07:50:31.170Z,32.00
2022-12-23T07:52:59.350Z,36.80
2022-12-23T07:55:27.518Z,37.60
2022-12-23T07:57:55.482Z,37.00
2022-12-23T08:00:23.680Z,36.50
2022-12-23T08:02:51.857Z,38.70
2022-12-23T08:05:20.103Z,36.70
2022-12-23T08:07:50.183Z,36.20
2022-12-23T08:10:18.203Z,36.00
2022-12-23T08:12:46.781Z,39.50
2022-12-23T08:15:14.787Z,40.90
2022-12-23T08:17:43.397Z,39.30
2022-12-23T08:20:12.063Z,37.90
2022-12-23T08:22:40.096Z,35.70
2022-12-23T08:25:08.534Z,38.90
2022-12-23T08:27:36.651Z,35.90
2022-12-23T08:30:05.208Z,34.20
2022-12-23T08:32:33.242Z,33.00
2022-12-23T08:35:01.483Z,34.20
2022-12-23T08:37:29.759Z,38.40
2022-12-23T08:39:57.829Z,36.50
2022-12-23T08:42:25.907Z,39.30
2022-12-23T08:44:53.878Z,39.80
2022-12-23T08:47:21.966Z,38.90
2022-12-23T08:49:49.949Z,39.00
2022-12-23T08:52:17.947Z,39.20
2022-12-23T08:54:45.964Z,41.10
2022-12-23T08:57:14.334Z,39.50
2022-12-23T08:59:42.348Z,38.70
2022-12-23T09:02:12.186Z,40.90
2022-12-23T09:04:40.393Z,40.00
2022-12-23T09:07:08.384Z,38.50
2022-12-23T09:09:38.076Z,37.60
2022-12-23T09:12:06.467Z,33.00
2022-12-23T09:15:00.452Z,39.40
2022-12-23T09:17:28.724Z,38.00
2022-12-23T09:19:56.898Z,38.70
2022-12-23T09:22:24.991Z,38.60
2022-12-23T09:24:53.281Z,39.10
2022-12-23T09:27:21.446Z,36.60
2022-12-23T09:29:49.357Z,37.80
2022-12-23T09:32:17.666Z,37.50
2022-12-23T09:34:45.729Z,37.00
2022-12-23T09:37:16.907Z,36.60
2022-12-23T09:39:44.965Z,40.50
2022-12-23T09:42:25.210Z,37.60
2022-12-23T09:45:40.156Z,38.50
2022-12-23T09:48:17.580Z,36.30
2022-12-23T09:50:46.749Z,35.00
2022-12-23T09:53:22.617Z,30.40
2022-12-23T09:56:02.664Z,31.20
2022-12-23T09:58:46.716Z,33.60
2022-12-23T10:01:59.609Z,32.50
2022-12-23T10:04:38.021Z,34.70
2022-12-23T10:07:11.794Z,34.10
2022-12-23T10:09:44.147Z,32.00
2022-12-23T10:12:40.428Z,32.00
2022-12-23T10:15:47.805Z,28.00
2022-12-23T10:18:42.546Z,29.10
2022-12-23T10:21:24.855Z,36.00
2022-12-23T10:23:55.991Z,35.30
2022-12-23T10:26:57.342Z,33.80
2022-12-23T10:29:30.139Z,34.30
2022-12-23T10:32:32.584Z,31.40
2022-12-23T10:35:41.127Z,30.60
2022-12-23T10:38:26.809Z,38.50
2022-12-23T10:41:09.536Z,38.70
2022-12-23T10:44:05.047Z,35.80
2022-12-23T10:47:22.578Z,34.10
2022-12-23T10:50:21.265Z,35.70
2022-12-23T10:52:53.840Z,34.10
2022-12-23T10:55:34.142Z,32.20
2022-12-23T10:58:27.362Z,34.50
2022-12-23T11:00:59.808Z,32.60
2022-12-23T11:03:32.508Z,32.20
2022-12-23T11:15:58.337Z,34.90
2022-12-23T11:18:26.578Z,35.40
2022-12-23T11:30:05.676Z,32.50
2022-12-23T11:32:38.563Z,30.60
2022-12-23T11:35:30.677Z,32.90
2022-12-23T11:38:01.224Z,28.80
2022-12-23T11:40:36.740Z,31.40
2022-12-23T11:43:12.447Z,31.40
2022-12-23T11:45:41.289Z,31.40
2022-12-23T11:48:28.546Z,30.10
2022-12-23T11:51:01.880Z,31.10
2022-12-23T11:53:30.446Z,29.90
2022-12-23T11:56:07.335Z,30.80
2022-12-23T11:59:02.847Z,31.00
2022-12-23T12:01:31.801Z,29.70
2022-12-23T12:04:07.641Z,26.40
2022-12-23T12:06:43.677Z,27.60
2022-12-23T12:09:13.855Z,28.00
2022-12-23T12:11:53.019Z,27.10
2022-12-23T12:17:05.565Z,24.50
2022-12-23T12:19:39.933Z,25.30
2022-12-23T12:22:15.074Z,28.60
2022-12-23T12:24:50.760Z,25.10
2022-12-23T12:27:28.339Z,20.70
2022-12-23T12:30:04.547Z,24.50
2022-12-23T12:32:56.258Z,30.50
2022-12-23T12:35:45.799Z,28.90
2022-12-23T12:38:30.542Z,29.10
2022-12-23T12:41:06.808Z,29.80
2022-12-23T12:43:47.289Z,28.80
2022-12-23T12:46:41.240Z,29.20
2022-12-23T12:49:20.603Z,29.50
2022-12-23T12:51:58.378Z,29.90
2022-12-23T12:54:39.944Z,27.30
2022-12-23T12:57:15.600Z,28.80
2022-12-23T12:59:45.495Z,27.80
2022-12-23T13:02:42.112Z,27.70
2022-12-23T13:05:24.080Z,26.90
2022-12-23T13:08:16.749Z,28.30
2022-12-23T13:10:49.605Z,27.20
2022-12-23T13:13:55.180Z,29.20
2022-12-23T13:16:29.270Z,25.80
2022-12-23T13:19:06.628Z,26.00
2022-12-23T13:21:48.116Z,27.00
2022-12-23T13:24:48.628Z,28.30
2022-12-23T13:27:44.620Z,25.20
2022-12-23T13:30:21.623Z,24.50
2022-12-23T13:33:16.711Z,22.50
2022-12-23T13:36:06.019Z,26.70
2022-12-23T13:39:06.941Z,22.00
2022-12-23T13:41:53.623Z,20.60
2022-12-23T13:44:22.755Z,26.00
2022-12-23T13:46:59.828Z,28.60
2022-12-23T13:49:58.533Z,26.00
2022-12-23T13:52:29.597Z,28.10
2022-12-23T13:55:16.109Z,26.30
2022-12-23T13:58:02.987Z,29.80
2022-12-23T14:00:33.316Z,39.90
2022-12-23T14:03:01.536Z,41.40
2022-12-23T14:05:39.016Z,42.20
2022-12-23T14:08:19.332Z,37.10
2022-12-23T14:10:59.184Z,35.20
2022-12-23T14:13:36.698Z,40.70
2022-12-23T14:16:22.686Z,39.70
2022-12-23T14:18:53.704Z,31.60
2022-12-23T14:21:21.666Z,29.60
2022-12-23T14:24:27.032Z,26.90
2022-12-23T14:27:27.309Z,28.70
2022-12-23T14:30:23.798Z,27.10
2022-12-23T14:33:00.572Z,25.20
2022-12-23T14:35:35.455Z,25.10
2022-12-23T14:38:08.156Z,21.70
2022-12-23T14:40:38.939Z,23.20
2022-12-23T14:43:22.344Z,21.00
2022-12-23T14:45:56.111Z,19.00
2022-12-23T14:48:34.578Z,21.00
2022-12-23T14:51:09.062Z,20.30
2022-12-23T14:53:57.995Z,26.00
2022-12-23T14:56:26.510Z,25.10
2022-12-23T14:59:09.932Z,27.20
2022-12-23T15:01:42.599Z,23.60
2022-12-23T15:04:13.300Z,23.60
2022-12-23T15:07:06.740Z,25.90
2022-12-23T15:09:55.660Z,25.00
2022-12-23T15:12:42.213Z,21.90
2022-12-23T15:15:25.319Z,21.90
2022-12-23T15:18:06.003Z,21.80
2022-12-23T15:20:35.381Z,22.90
2022-12-23T15:23:10.174Z,23.90
2022-12-23T15:25:46.284Z,20.20
2022-12-23T15:28:21.893Z,28.10
2022-12-23T15:30:54.344Z,25.10
2022-12-23T15:36:35.766Z,24.70
2022-12-23T15:39:10.634Z,23.10
2022-12-23T15:41:46.247Z,26.40
2022-12-23T15:44:21.378Z,32.10
2022-12-23T15:46:50.816Z,28.40
2022-12-23T15:49:22.430Z,32.90
2022-12-23T15:52:08.530Z,28.80
2022-12-23T15:54:46.662Z,27.70
2022-12-23T15:57:20.858Z,23.90
2022-12-23T15:59:49.241Z,26.50
2022-12-23T16:02:59.727Z,27.00
2022-12-23T16:05:36.115Z,28.60
2022-12-23T16:28:40.693Z,36.80
2022-12-23T16:31:11.034Z,20.80
2022-12-23T16:33:52.115Z,22.80
2022-12-23T16:36:27.453Z,21.30
2022-12-23T16:39:24.050Z,27.50
2022-12-23T16:41:52.257Z,24.90
2022-12-23T16:44:21.670Z,30.30
2022-12-23T16:46:51.472Z,28.50
2022-12-23T16:49:24.438Z,30.80
2022-12-23T16:51:58.614Z,30.00
2022-12-23T16:54:26.746Z,29.70
2022-12-23T16:56:54.781Z,30.90
2022-12-23T16:59:25.054Z,34.20
2022-12-23T17:01:56.558Z,33.90
2022-12-23T17:04:28.562Z,31.20
2022-12-23T17:06:56.832Z,31.40
2022-12-23T17:09:25.754Z,29.30
2022-12-23T17:11:54.430Z,30.50
2022-12-23T17:14:25.149Z,31.40
2022-12-23T17:16:53.855Z,30.00
2022-12-23T17:19:28.704Z,31.50
2022-12-23T17:22:04.509Z,27.90
2022-12-23T17:24:32.742Z,25.50
2022-12-23T17:27:02.066Z,25.50
2022-12-23T17:29:30.713Z,24.30
2022-12-23T17:31:59.103Z,24.30
2022-12-23T17:34:27.433Z,28.20
2022-12-23T17:36:55.801Z,25.30
2022-12-23T17:39:24.194Z,25.20
2022-12-23T17:41:52.572Z,24.40
2022-12-23T17:44:21.277Z,23.40
2022-12-23T17:46:49.900Z,24.90
2022-12-23T17:49:18.222Z,27.40
2022-12-23T17:51:47.581Z,25.50
2022-12-23T17:54:24.897Z,24.40
2022-12-23T17:56:53.272Z,31.30
2022-12-23T17:59:22.691Z,26.50
2022-12-23T18:01:51.831Z,21.20
2022-12-23T18:04:22.013Z,23.60
2022-12-23T18:06:50.154Z,20.90
2022-12-23T18:09:19.594Z,19.80
2022-12-23T18:11:48.872Z,22.20
2022-12-23T18:14:24.028Z,20.80
2022-12-23T18:16:52.273Z,20.70
2022-12-23T18:19:21.708Z,22.10
2022-12-23T18:21:51.552Z,18.50
2022-12-23T18:24:20.392Z,19.70
2022-12-23T18:26:50.131Z,17.70
2022-12-23T18:29:19.428Z,17.20
2022-12-23T18:31:52.075Z,20.30
2022-12-23T18:34:22.231Z,16.90
2022-12-23T18:36:52.239Z,15.00
2022-12-23T18:39:21.386Z,19.80
2022-12-23T18:41:49.828Z,19.60
2022-12-23T18:44:20.773Z,18.60
2022-12-23T18:46:50.532Z,22.20
2022-12-23T18:49:19.412Z,19.60
2022-12-23T19:06:23.483Z,42.30
2022-12-23T19:08:51.351Z,28.00
2022-12-23T19:11:20.833Z,27.00
2022-12-23T19:13:48.696Z,25.70
2022-12-23T19:16:19.863Z,27.10
2022-12-23T19:18:49.580Z,27.20
2022-12-23T19:21:18.618Z,27.60
2022-12-23T19:23:46.642Z,25.10
2022-12-23T19:26:15.436Z,22.60
2022-12-23T19:28:43.663Z,21.30
2022-12-23T19:31:14.428Z,21.50
2022-12-23T19:33:45.189Z,24.80
2022-12-23T19:36:16.510Z,25.40
2022-12-23T19:38:44.625Z,25.90
2022-12-23T19:41:12.585Z,27.20
2022-12-23T19:43:44.800Z,26.30
2022-12-23T19:46:14.922Z,26.20
2022-12-23T19:48:43.647Z,24.00
2022-12-23T19:51:13.902Z,22.50
2022-12-23T19:53:42.488Z,28.10
2022-12-23T19:56:15.849Z,27.80
2022-12-23T19:58:44.329Z,23.80
2022-12-23T20:01:13.711Z,23.00
2022-12-23T20:06:22.470Z,28.60
2022-12-23T20:08:54.937Z,33.00
2022-12-23T20:11:26.319Z,28.60
2022-12-23T20:13:55.497Z,24.40
2022-12-23T20:16:23.705Z,25.40
2022-12-23T20:18:51.922Z,23.70
2022-12-23T20:21:20.731Z,24.70
2022-12-23T20:23:49.327Z,24.10
2022-12-23T20:26:18.707Z,24.60
2022-12-23T20:28:46.997Z,24.20
2022-12-23T20:31:21.043Z,22.80
2022-12-23T20:33:50.721Z,20.30
2022-12-23T20:36:23.188Z,22.20
2022-12-23T20:38:52.527Z,21.90
2022-12-23T20:44:23.335Z,23.90
2022-12-23T20:46:37.715Z,26.30
2022-12-23T20:49:05.771Z,23.00
2022-12-23T20:51:35.183Z,22.30
2022-12-23T20:54:03.266Z,30.20
2022-12-23T20:56:31.877Z,22.20
2022-12-23T20:59:01.619Z,24.00
2022-12-23T21:01:38.701Z,21.10
2022-12-23T21:04:14.151Z,20.70
2022-12-23T21:06:42.661Z,23.00
2022-12-23T21:09:12.576Z,23.70
2022-12-23T21:11:43.306Z,22.00
2022-12-23T21:14:12.722Z,23.10
2022-12-23T21:16:41.812Z,23.20
2022-12-23T21:21:45.204Z,22.80
2022-12-23T21:24:14.095Z,24.10
2022-12-23T21:26:42.555Z,29.80
2022-12-23T21:29:11.640Z,30.60
2022-12-23T21:31:41.133Z,31.00
2022-12-23T21:34:10.888Z,23.00
2022-12-23T21:36:39.452Z,25.80
2022-12-23T21:39:08.875Z,24.30
2022-12-23T21:44:06.233Z,24.40
2022-12-23T21:46:34.484Z,25.10
2022-12-23T21:49:02.823Z,23.60
2022-12-23T21:51:39.553Z,23.70
2022-12-23T21:54:10.633Z,22.00
2022-12-23T21:56:40.690Z,20.80
2022-12-23T21:59:12.760Z,20.40
2022-12-23T22:01:42.196Z,22.50
2022-12-23T22:04:10.522Z,22.30
2022-12-23T22:06:43.443Z,22.20
2022-12-23T22:09:15.987Z,21.10
2022-12-23T22:11:44.550Z,21.30
2022-12-23T22:14:16.042Z,21.40
2022-12-23T22:16:44.154Z,20.90
2022-12-23T22:19:12.547Z,25.70
2022-12-23T22:21:42.457Z,26.10
2022-12-23T22:24:11.184Z,25.00
2022-12-23T22:26:39.529Z,21.00
2022-12-23T22:29:08.119Z,24.00
2022-12-23T22:31:44.786Z,24.90
2022-12-23T22:34:16.699Z,26.40
2022-12-23T22:36:45.708Z,26.50
2022-12-23T22:39:19.988Z,25.00
2022-12-23T22:41:52.951Z,23.40
2022-12-23T22:44:21.785Z,24.70
2022-12-23T22:46:50.113Z,22.80
2022-12-23T22:49:18.910Z,26.10
2022-12-23T22:51:46.870Z,24.50
2022-12-23T22:54:14.919Z,21.50
2022-12-23T22:56:44.247Z,23.00
2022-12-23T22:59:19.322Z,24.20
2022-12-23T23:01:47.992Z,24.40
2022-12-23T23:04:16.038Z,25.60
2022-12-23T23:06:44.115Z,25.80
2022-12-23T23:09:14.967Z,25.10
2022-12-23T23:11:44.477Z,28.40
2022-12-23T23:14:13.342Z,27.90
2022-12-23T23:16:41.957Z,28.20
2022-12-23T23:19:10.731Z,26.80
2022-12-23T23:21:38.686Z,26.40
2022-12-23T23:24:07.251Z,27.20
2022-12-23T23:26:35.348Z,26.10
2022-12-23T23:29:03.320Z,26.40
2022-12-23T23:31:41.705Z,24.20
2022-12-23T23:34:10.819Z,24.10
2022-12-23T23:36:39.142Z,27.30
2022-12-23T23:39:07.475Z,28.50
2022-12-23T23:41:35.863Z,26.70
2022-12-23T23:44:04.182Z,28.30
2022-12-23T23:46:33.332Z,27.70
2022-12-23T23:49:01.503Z,29.90
2022-12-23T23:51:29.886Z,27.10
2022-12-23T23:53:57.822Z,26.00
2022-12-23T23:56:27.935Z,23.80
2022-12-23T23:58:57.987Z,23.10
